sensor_id;sensor_type;location;lat;lon;timestamp;temperature;humidity
578;DHT22;275;48.492;9.214;2023-04-24T00:01:59;15.10;31.90
578;DHT22;275;48.492;9.214;2023-04-24T00:04:26;14.60;33.20
578;DHT22;275;48.492;9.214;2023-04-24T00:06:53;14.60;33.10
578;DHT22;275;48.492;9.214;2023-04-24T00:09:22;15.20;31.90
578;DHT22;275;48.492;9.214;2023-04-24T00:11:49;14.70;32.70
578;DHT22;275;48.492;9.214;2023-04-24T00:14:16;14.30;33.40
578;DHT22;275;48.492;9.214;2023-04-24T00:16:44;14.40;33.50
578;DHT22;275;48.492;9.214;2023-04-24T00:19:11;14.40;33.40
578;DHT22;275;48.492;9.214;2023-04-24T00:21:38;14.50;33.20
578;DHT22;275;48.492;9.214;2023-04-24T00:24:05;15.10;32.00
578;DHT22;275;48.492;9.214;2023-04-24T00:26:34;14.80;32.60
578;DHT22;275;48.492;9.214;2023-04-24T00:29:01;14.50;33.60
578;DHT22;275;48.492;9.214;2023-04-24T00:31:28;14.90;32.60
578;DHT22;275;48.492;9.214;2023-04-24T00:33:56;14.60;33.30
578;DHT22;275;48.492;9.214;2023-04-24T00:36:23;15.10;32.50
578;DHT22;275;48.492;9.214;2023-04-24T00:38:50;15.30;31.70
578;DHT22;275;48.492;9.214;2023-04-24T00:41:17;15.10;32.40
578;DHT22;275;48.492;9.214;2023-04-24T00:43:44;14.80;32.50
578;DHT22;275;48.492;9.214;2023-04-24T00:46:11;14.60;33.20
578;DHT22;275;48.492;9.214;2023-04-24T00:48:39;14.80;33.00
578;DHT22;275;48.492;9.214;2023-04-24T00:51:07;14.80;32.80
578;DHT22;275;48.492;9.214;2023-04-24T00:53:34;15.10;32.30
578;DHT22;275;48.492;9.214;2023-04-24T00:56:02;15.30;31.90
578;DHT22;275;48.492;9.214;2023-04-24T00:58:29;15.90;30.30
578;DHT22;275;48.492;9.214;2023-04-24T01:00:56;15.50;31.30
578;DHT22;275;48.492;9.214;2023-04-24T01:03:26;15.80;31.20
578;DHT22;275;48.492;9.214;2023-04-24T01:05:55;15.80;30.90
578;DHT22;275;48.492;9.214;2023-04-24T01:08:24;15.90;30.90
578;DHT22;275;48.492;9.214;2023-04-24T01:10:52;16.40;30.00
578;DHT22;275;48.492;9.214;2023-04-24T01:13:19;16.50;29.90
578;DHT22;275;48.492;9.214;2023-04-24T01:15:47;16.40;31.10
578;DHT22;275;48.492;9.214;2023-04-24T01:18:14;15.80;32.10
578;DHT22;275;48.492;9.214;2023-04-24T01:20:42;15.50;33.70
578;DHT22;275;48.492;9.214;2023-04-24T01:23:11;15.90;33.50
578;DHT22;275;48.492;9.214;2023-04-24T01:25:38;15.10;35.20
578;DHT22;275;48.492;9.214;2023-04-24T01:28:05;14.80;37.90
578;DHT22;275;48.492;9.214;2023-04-24T01:30:32;15.40;35.20
578;DHT22;275;48.492;9.214;2023-04-24T01:32:59;16.00;34.40
578;DHT22;275;48.492;9.214;2023-04-24T01:35:26;16.40;33.30
578;DHT22;275;48.492;9.214;2023-04-24T01:37:53;16.60;33.60
578;DHT22;275;48.492;9.214;2023-04-24T01:40:22;16.70;33.60
578;DHT22;275;48.492;9.214;2023-04-24T01:42:49;16.50;33.60
578;DHT22;275;48.492;9.214;2023-04-24T01:45:16;15.80;34.50
578;DHT22;275;48.492;9.214;2023-04-24T01:47:44;15.80;34.50
578;DHT22;275;48.492;9.214;2023-04-24T01:50:11;15.90;34.30
578;DHT22;275;48.492;9.214;2023-04-24T01:52:38;15.80;35.00
578;DHT22;275;48.492;9.214;2023-04-24T01:55:06;15.80;35.40
578;DHT22;275;48.492;9.214;2023-04-24T01:57:35;15.70;36.00
578;DHT22;275;48.492;9.214;2023-04-24T02:00:03;15.70;36.60
578;DHT22;275;48.492;9.214;2023-04-24T02:02:31;15.40;36.90
578;DHT22;275;48.492;9.214;2023-04-24T02:04:58;15.20;37.20
578;DHT22;275;48.492;9.214;2023-04-24T02:07:25;15.10;37.90
578;DHT22;275;48.492;9.214;2023-04-24T02:09:52;15.10;38.10
578;DHT22;275;48.492;9.214;2023-04-24T02:12:19;15.10;38.30
578;DHT22;275;48.492;9.214;2023-04-24T02:14:47;14.90;38.70
578;DHT22;275;48.492;9.214;2023-04-24T02:17:14;14.70;40.30
578;DHT22;275;48.492;9.214;2023-04-24T02:19:41;14.40;40.90
578;DHT22;275;48.492;9.214;2023-04-24T02:22:08;14.30;41.10
578;DHT22;275;48.492;9.214;2023-04-24T02:24:36;14.30;41.70
578;DHT22;275;48.492;9.214;2023-04-24T02:27:03;14.40;41.20
578;DHT22;275;48.492;9.214;2023-04-24T02:29:29;13.90;43.30
578;DHT22;275;48.492;9.214;2023-04-24T02:31:58;14.20;42.70
578;DHT22;275;48.492;9.214;2023-04-24T02:34:25;14.40;42.30
578;DHT22;275;48.492;9.214;2023-04-24T02:36:51;14.60;42.20
578;DHT22;275;48.492;9.214;2023-04-24T02:39:19;14.80;41.60
578;DHT22;275;48.492;9.214;2023-04-24T02:41:46;15.10;40.80
578;DHT22;275;48.492;9.214;2023-04-24T02:44:13;15.10;40.10
578;DHT22;275;48.492;9.214;2023-04-24T02:46:40;14.80;41.00
578;DHT22;275;48.492;9.214;2023-04-24T02:49:08;14.80;40.90
578;DHT22;275;48.492;9.214;2023-04-24T02:51:37;14.60;41.30
578;DHT22;275;48.492;9.214;2023-04-24T02:54:06;14.50;41.30
578;DHT22;275;48.492;9.214;2023-04-24T02:56:33;14.80;41.60
578;DHT22;275;48.492;9.214;2023-04-24T02:59:00;14.70;41.20
578;DHT22;275;48.492;9.214;2023-04-24T03:01:27;14.80;41.20
578;DHT22;275;48.492;9.214;2023-04-24T03:03:54;15.00;40.20
578;DHT22;275;48.492;9.214;2023-04-24T03:06:22;15.20;40.00
578;DHT22;275;48.492;9.214;2023-04-24T03:08:48;15.20;40.00
578;DHT22;275;48.492;9.214;2023-04-24T03:11:15;14.80;40.40
578;DHT22;275;48.492;9.214;2023-04-24T03:13:42;14.70;40.90
578;DHT22;275;48.492;9.214;2023-04-24T03:16:09;14.50;41.10
578;DHT22;275;48.492;9.214;2023-04-24T03:18:36;14.40;41.50
578;DHT22;275;48.492;9.214;2023-04-24T03:21:03;14.20;43.00
578;DHT22;275;48.492;9.214;2023-04-24T03:23:31;14.30;42.80
578;DHT22;275;48.492;9.214;2023-04-24T03:25:58;13.90;43.80
578;DHT22;275;48.492;9.214;2023-04-24T03:28:25;13.50;45.80
578;DHT22;275;48.492;9.214;2023-04-24T03:30:52;13.80;46.10
578;DHT22;275;48.492;9.214;2023-04-24T03:33:19;14.40;44.80
578;DHT22;275;48.492;9.214;2023-04-24T03:35:45;15.00;43.50
578;DHT22;275;48.492;9.214;2023-04-24T03:38:12;14.90;43.60
578;DHT22;275;48.492;9.214;2023-04-24T03:40:40;13.70;45.00
578;DHT22;275;48.492;9.214;2023-04-24T03:43:07;13.30;46.30
578;DHT22;275;48.492;9.214;2023-04-24T03:45:34;12.70;47.60
578;DHT22;275;48.492;9.214;2023-04-24T03:48:01;13.00;47.60
578;DHT22;275;48.492;9.214;2023-04-24T03:50:28;13.10;47.30
578;DHT22;275;48.492;9.214;2023-04-24T03:52:54;12.60;47.90
578;DHT22;275;48.492;9.214;2023-04-24T03:55:21;12.60;48.10
578;DHT22;275;48.492;9.214;2023-04-24T03:57:49;12.90;47.80
578;DHT22;275;48.492;9.214;2023-04-24T04:00:16;13.50;46.30
578;DHT22;275;48.492;9.214;2023-04-24T04:02:44;14.10;44.40
578;DHT22;275;48.492;9.214;2023-04-24T04:05:10;14.50;43.20
578;DHT22;275;48.492;9.214;2023-04-24T04:07:37;14.10;43.90
578;DHT22;275;48.492;9.214;2023-04-24T04:10:05;14.00;44.50
578;DHT22;275;48.492;9.214;2023-04-24T04:12:32;13.70;44.60
578;DHT22;275;48.492;9.214;2023-04-24T04:15:00;13.70;45.00
578;DHT22;275;48.492;9.214;2023-04-24T04:17:27;13.80;44.90
578;DHT22;275;48.492;9.214;2023-04-24T04:19:54;13.90;44.50
578;DHT22;275;48.492;9.214;2023-04-24T04:22:21;14.00;44.40
578;DHT22;275;48.492;9.214;2023-04-24T04:24:48;14.20;44.10
578;DHT22;275;48.492;9.214;2023-04-24T04:27:16;14.40;43.20
578;DHT22;275;48.492;9.214;2023-04-24T04:29:44;14.40;42.80
578;DHT22;275;48.492;9.214;2023-04-24T04:32:12;14.00;43.90
578;DHT22;275;48.492;9.214;2023-04-24T04:34:39;14.10;44.20
578;DHT22;275;48.492;9.214;2023-04-24T04:37:06;14.20;43.20
578;DHT22;275;48.492;9.214;2023-04-24T04:39:32;14.20;44.00
578;DHT22;275;48.492;9.214;2023-04-24T04:41:59;14.50;43.40
578;DHT22;275;48.492;9.214;2023-04-24T04:44:26;14.50;43.30
578;DHT22;275;48.492;9.214;2023-04-24T04:46:54;14.90;42.30
578;DHT22;275;48.492;9.214;2023-04-24T04:49:23;14.80;42.60
578;DHT22;275;48.492;9.214;2023-04-24T04:51:50;14.70;42.40
578;DHT22;275;48.492;9.214;2023-04-24T04:54:17;14.30;43.60
578;DHT22;275;48.492;9.214;2023-04-24T04:56:44;14.30;43.90
578;DHT22;275;48.492;9.214;2023-04-24T04:59:11;13.80;46.70
578;DHT22;275;48.492;9.214;2023-04-24T05:01:38;12.80;51.30
578;DHT22;275;48.492;9.214;2023-04-24T05:04:05;12.90;51.20
578;DHT22;275;48.492;9.214;2023-04-24T05:06:33;12.50;49.30
578;DHT22;275;48.492;9.214;2023-04-24T05:09:00;11.70;53.00
578;DHT22;275;48.492;9.214;2023-04-24T05:11:28;11.40;55.00
578;DHT22;275;48.492;9.214;2023-04-24T05:13:55;11.20;56.50
578;DHT22;275;48.492;9.214;2023-04-24T05:16:22;11.10;53.80
578;DHT22;275;48.492;9.214;2023-04-24T05:18:49;10.60;55.80
578;DHT22;275;48.492;9.214;2023-04-24T05:21:16;10.50;56.00
578;DHT22;275;48.492;9.214;2023-04-24T05:23:44;10.80;55.20
578;DHT22;275;48.492;9.214;2023-04-24T05:26:11;10.60;53.50
578;DHT22;275;48.492;9.214;2023-04-24T05:28:38;10.60;54.10
578;DHT22;275;48.492;9.214;2023-04-24T05:31:04;10.60;53.20
578;DHT22;275;48.492;9.214;2023-04-24T05:33:32;10.60;53.30
578;DHT22;275;48.492;9.214;2023-04-24T05:35:58;10.80;52.20
578;DHT22;275;48.492;9.214;2023-04-24T05:38:25;10.90;50.90
578;DHT22;275;48.492;9.214;2023-04-24T05:40:53;10.90;52.40
578;DHT22;275;48.492;9.214;2023-04-24T05:43:20;10.80;52.00
578;DHT22;275;48.492;9.214;2023-04-24T05:45:47;10.40;53.00
578;DHT22;275;48.492;9.214;2023-04-24T05:48:14;10.50;53.30
578;DHT22;275;48.492;9.214;2023-04-24T05:50:41;10.50;51.70
578;DHT22;275;48.492;9.214;2023-04-24T05:53:08;10.80;50.70
578;DHT22;275;48.492;9.214;2023-04-24T05:55:36;11.10;50.50
578;DHT22;275;48.492;9.214;2023-04-24T05:58:04;11.50;48.70
578;DHT22;275;48.492;9.214;2023-04-24T06:00:31;11.30;48.70
578;DHT22;275;48.492;9.214;2023-04-24T06:02:59;11.30;49.80
578;DHT22;275;48.492;9.214;2023-04-24T06:05:25;11.60;48.30
578;DHT22;275;48.492;9.214;2023-04-24T06:07:52;11.70;47.60
578;DHT22;275;48.492;9.214;2023-04-24T06:10:19;11.40;49.10
578;DHT22;275;48.492;9.214;2023-04-24T06:12:46;11.60;48.30
578;DHT22;275;48.492;9.214;2023-04-24T06:15:14;11.40;48.10
578;DHT22;275;48.492;9.214;2023-04-24T06:17:41;11.10;48.60
578;DHT22;275;48.492;9.214;2023-04-24T06:20:08;11.10;48.40
578;DHT22;275;48.492;9.214;2023-04-24T06:22:36;11.40;48.30
578;DHT22;275;48.492;9.214;2023-04-24T06:25:06;12.20;47.20
578;DHT22;275;48.492;9.214;2023-04-24T06:27:32;12.50;45.40
578;DHT22;275;48.492;9.214;2023-04-24T06:29:59;12.30;44.60
578;DHT22;275;48.492;9.214;2023-04-24T06:32:27;11.90;46.00
578;DHT22;275;48.492;9.214;2023-04-24T06:34:56;12.30;46.70
578;DHT22;275;48.492;9.214;2023-04-24T06:37:23;12.40;44.60
578;DHT22;275;48.492;9.214;2023-04-24T06:39:50;11.70;46.70
578;DHT22;275;48.492;9.214;2023-04-24T06:42:17;11.90;46.70
578;DHT22;275;48.492;9.214;2023-04-24T06:44:46;12.20;45.60
578;DHT22;275;48.492;9.214;2023-04-24T06:47:13;11.90;45.70
578;DHT22;275;48.492;9.214;2023-04-24T06:49:41;11.70;46.00
578;DHT22;275;48.492;9.214;2023-04-24T06:52:08;11.80;46.80
578;DHT22;275;48.492;9.214;2023-04-24T06:54:35;11.80;46.10
578;DHT22;275;48.492;9.214;2023-04-24T06:57:02;12.10;45.70
578;DHT22;275;48.492;9.214;2023-04-24T06:59:29;13.00;42.10
578;DHT22;275;48.492;9.214;2023-04-24T07:01:56;13.30;42.00
578;DHT22;275;48.492;9.214;2023-04-24T07:04:23;13.20;40.80
578;DHT22;275;48.492;9.214;2023-04-24T07:06:52;13.70;39.70
578;DHT22;275;48.492;9.214;2023-04-24T07:09:21;12.90;40.20
578;DHT22;275;48.492;9.214;2023-04-24T07:11:49;12.90;41.00
578;DHT22;275;48.492;9.214;2023-04-24T07:14:16;14.50;38.40
578;DHT22;275;48.492;9.214;2023-04-24T07:16:43;14.20;37.90
578;DHT22;275;48.492;9.214;2023-04-24T07:19:10;14.70;36.30
578;DHT22;275;48.492;9.214;2023-04-24T07:21:37;14.30;36.80
578;DHT22;275;48.492;9.214;2023-04-24T07:24:05;14.90;36.10
578;DHT22;275;48.492;9.214;2023-04-24T07:26:35;14.50;36.40
578;DHT22;275;48.492;9.214;2023-04-24T07:29:02;14.90;36.10
578;DHT22;275;48.492;9.214;2023-04-24T07:31:28;15.20;35.20
578;DHT22;275;48.492;9.214;2023-04-24T07:33:55;15.30;35.50
578;DHT22;275;48.492;9.214;2023-04-24T07:36:23;15.10;36.40
578;DHT22;275;48.492;9.214;2023-04-24T07:38:51;14.50;38.50
578;DHT22;275;48.492;9.214;2023-04-24T07:41:19;14.00;41.60
578;DHT22;275;48.492;9.214;2023-04-24T07:43:47;12.70;45.40
578;DHT22;275;48.492;9.214;2023-04-24T07:46:14;11.90;47.10
578;DHT22;275;48.492;9.214;2023-04-24T07:48:40;12.50;47.60
578;DHT22;275;48.492;9.214;2023-04-24T07:51:07;13.30;44.30
578;DHT22;275;48.492;9.214;2023-04-24T07:53:35;14.00;42.50
578;DHT22;275;48.492;9.214;2023-04-24T07:56:02;14.00;36.50
578;DHT22;275;48.492;9.214;2023-04-24T07:58:30;13.60;38.90
578;DHT22;275;48.492;9.214;2023-04-24T08:00:57;13.60;39.70
578;DHT22;275;48.492;9.214;2023-04-24T08:03:24;13.00;39.80
578;DHT22;275;48.492;9.214;2023-04-24T08:05:50;13.30;40.10
578;DHT22;275;48.492;9.214;2023-04-24T08:08:18;13.50;38.80
578;DHT22;275;48.492;9.214;2023-04-24T08:10:45;13.50;38.60
578;DHT22;275;48.492;9.214;2023-04-24T08:13:12;13.50;37.70
578;DHT22;275;48.492;9.214;2023-04-24T08:15:40;13.00;38.30
578;DHT22;275;48.492;9.214;2023-04-24T08:18:07;12.70;38.20
578;DHT22;275;48.492;9.214;2023-04-24T08:20:34;13.10;38.50
578;DHT22;275;48.492;9.214;2023-04-24T08:23:02;14.10;36.80
578;DHT22;275;48.492;9.214;2023-04-24T08:25:28;16.50;31.20
578;DHT22;275;48.492;9.214;2023-04-24T08:27:55;17.60;29.00
578;DHT22;275;48.492;9.214;2023-04-24T08:30:22;15.90;29.40
578;DHT22;275;48.492;9.214;2023-04-24T08:32:50;14.40;29.70
578;DHT22;275;48.492;9.214;2023-04-24T08:35:17;13.50;31.80
578;DHT22;275;48.492;9.214;2023-04-24T08:37:44;13.20;30.20
578;DHT22;275;48.492;9.214;2023-04-24T08:40:13;13.10;31.80
578;DHT22;275;48.492;9.214;2023-04-24T08:42:42;13.00;32.00
578;DHT22;275;48.492;9.214;2023-04-24T08:45:10;12.70;32.20
578;DHT22;275;48.492;9.214;2023-04-24T08:47:38;12.90;31.80
578;DHT22;275;48.492;9.214;2023-04-24T08:50:08;12.60;32.40
578;DHT22;275;48.492;9.214;2023-04-24T08:52:35;12.40;31.60
578;DHT22;275;48.492;9.214;2023-04-24T08:55:02;12.50;33.50
578;DHT22;275;48.492;9.214;2023-04-24T08:57:29;12.70;31.70
578;DHT22;275;48.492;9.214;2023-04-24T08:59:58;13.00;29.90
578;DHT22;275;48.492;9.214;2023-04-24T09:02:25;13.00;30.90
578;DHT22;275;48.492;9.214;2023-04-24T09:04:52;13.30;29.60
578;DHT22;275;48.492;9.214;2023-04-24T09:07:22;13.20;29.70
578;DHT22;275;48.492;9.214;2023-04-24T09:09:51;13.30;29.60
578;DHT22;275;48.492;9.214;2023-04-24T09:12:19;13.30;29.00
578;DHT22;275;48.492;9.214;2023-04-24T09:14:46;14.20;28.20
578;DHT22;275;48.492;9.214;2023-04-24T09:17:14;13.80;28.60
578;DHT22;275;48.492;9.214;2023-04-24T09:19:41;13.70;28.90
578;DHT22;275;48.492;9.214;2023-04-24T09:22:09;15.90;26.30
578;DHT22;275;48.492;9.214;2023-04-24T09:24:38;16.70;23.90
578;DHT22;275;48.492;9.214;2023-04-24T09:27:05;15.40;25.90
578;DHT22;275;48.492;9.214;2023-04-24T09:29:33;14.50;26.70
578;DHT22;275;48.492;9.214;2023-04-24T09:32:18;14.10;27.50
578;DHT22;275;48.492;9.214;2023-04-24T09:34:47;13.90;27.20
578;DHT22;275;48.492;9.214;2023-04-24T09:37:27;14.20;27.30
578;DHT22;275;48.492;9.214;2023-04-24T09:40:09;14.00;26.90
578;DHT22;275;48.492;9.214;2023-04-24T09:42:37;13.50;28.60
578;DHT22;275;48.492;9.214;2023-04-24T09:45:08;13.50;29.00
578;DHT22;275;48.492;9.214;2023-04-24T09:47:36;13.00;30.00
578;DHT22;275;48.492;9.214;2023-04-24T09:50:10;12.90;30.80
578;DHT22;275;48.492;9.214;2023-04-24T09:52:40;13.10;30.50
578;DHT22;275;48.492;9.214;2023-04-24T09:55:16;13.00;30.50
578;DHT22;275;48.492;9.214;2023-04-24T09:57:54;13.00;29.80
578;DHT22;275;48.492;9.214;2023-04-24T10:00:22;13.90;29.10
578;DHT22;275;48.492;9.214;2023-04-24T10:02:51;14.50;27.20
578;DHT22;275;48.492;9.214;2023-04-24T10:05:18;15.70;26.00
578;DHT22;275;48.492;9.214;2023-04-24T10:07:46;15.60;26.40
578;DHT22;275;48.492;9.214;2023-04-24T10:10:14;16.50;25.00
578;DHT22;275;48.492;9.214;2023-04-24T10:12:42;16.60;24.60
578;DHT22;275;48.492;9.214;2023-04-24T10:15:10;17.40;24.10
578;DHT22;275;48.492;9.214;2023-04-24T10:17:39;16.40;24.90
578;DHT22;275;48.492;9.214;2023-04-24T10:20:07;16.40;25.30
578;DHT22;275;48.492;9.214;2023-04-24T10:22:35;16.40;25.40
578;DHT22;275;48.492;9.214;2023-04-24T10:25:04;16.00;25.60
578;DHT22;275;48.492;9.214;2023-04-24T10:27:34;17.20;23.90
578;DHT22;275;48.492;9.214;2023-04-24T10:30:02;17.90;22.60
578;DHT22;275;48.492;9.214;2023-04-24T10:32:29;17.60;21.70
578;DHT22;275;48.492;9.214;2023-04-24T10:34:56;16.10;22.80
578;DHT22;275;48.492;9.214;2023-04-24T10:37:24;15.00;24.60
578;DHT22;275;48.492;9.214;2023-04-24T10:39:51;15.40;23.50
578;DHT22;275;48.492;9.214;2023-04-24T10:42:20;16.10;21.90
578;DHT22;275;48.492;9.214;2023-04-24T10:44:48;17.20;20.90
578;DHT22;275;48.492;9.214;2023-04-24T10:47:15;17.60;20.30
578;DHT22;275;48.492;9.214;2023-04-24T10:49:42;17.80;20.00
578;DHT22;275;48.492;9.214;2023-04-24T10:52:09;16.60;20.20
578;DHT22;275;48.492;9.214;2023-04-24T10:54:42;14.70;22.70
578;DHT22;275;48.492;9.214;2023-04-24T10:57:26;14.30;23.80
578;DHT22;275;48.492;9.214;2023-04-24T11:02:48;14.30;24.00
578;DHT22;275;48.492;9.214;2023-04-24T11:05:18;14.30;25.30
578;DHT22;275;48.492;9.214;2023-04-24T11:08:10;14.20;26.00
578;DHT22;275;48.492;9.214;2023-04-24T11:10:43;14.20;26.30
578;DHT22;275;48.492;9.214;2023-04-24T11:13:10;13.90;27.20
578;DHT22;275;48.492;9.214;2023-04-24T11:15:41;14.40;26.60
578;DHT22;275;48.492;9.214;2023-04-24T11:18:14;14.50;26.50
578;DHT22;275;48.492;9.214;2023-04-24T11:20:42;14.80;26.50
578;DHT22;275;48.492;9.214;2023-04-24T11:23:12;15.10;25.90
578;DHT22;275;48.492;9.214;2023-04-24T11:25:39;14.80;26.20
578;DHT22;275;48.492;9.214;2023-04-24T11:28:07;14.80;25.70
578;DHT22;275;48.492;9.214;2023-04-24T11:30:41;14.90;25.30
578;DHT22;275;48.492;9.214;2023-04-24T11:33:08;15.40;24.80
578;DHT22;275;48.492;9.214;2023-04-24T11:35:39;15.30;24.70
578;DHT22;275;48.492;9.214;2023-04-24T11:38:06;15.70;24.40
578;DHT22;275;48.492;9.214;2023-04-24T11:40:34;16.10;24.10
578;DHT22;275;48.492;9.214;2023-04-24T11:43:01;15.50;24.30
578;DHT22;275;48.492;9.214;2023-04-24T11:45:29;15.10;25.10
578;DHT22;275;48.492;9.214;2023-04-24T11:47:57;14.40;25.20
578;DHT22;275;48.492;9.214;2023-04-24T11:50:25;14.40;25.20
578;DHT22;275;48.492;9.214;2023-04-24T11:52:54;14.10;26.40
578;DHT22;275;48.492;9.214;2023-04-24T11:55:26;14.40;26.40
578;DHT22;275;48.492;9.214;2023-04-24T11:57:54;14.10;26.30
578;DHT22;275;48.492;9.214;2023-04-24T12:00:24;13.90;26.60
578;DHT22;275;48.492;9.214;2023-04-24T12:03:02;14.10;26.30
578;DHT22;275;48.492;9.214;2023-04-24T12:05:30;14.40;26.20
578;DHT22;275;48.492;9.214;2023-04-24T12:07:59;14.80;26.30
578;DHT22;275;48.492;9.214;2023-04-24T12:10:27;14.80;25.70
578;DHT22;275;48.492;9.214;2023-04-24T12:12:56;14.30;26.10
578;DHT22;275;48.492;9.214;2023-04-24T12:15:24;14.40;26.00
578;DHT22;275;48.492;9.214;2023-04-24T12:17:51;14.50;26.30
578;DHT22;275;48.492;9.214;2023-04-24T12:20:24;13.70;27.00
578;DHT22;275;48.492;9.214;2023-04-24T12:22:53;13.20;27.70
578;DHT22;275;48.492;9.214;2023-04-24T12:25:23;13.30;27.50
578;DHT22;275;48.492;9.214;2023-04-24T12:27:53;13.20;30.00
578;DHT22;275;48.492;9.214;2023-04-24T12:30:20;13.60;29.00
578;DHT22;275;48.492;9.214;2023-04-24T12:32:49;14.10;27.00
578;DHT22;275;48.492;9.214;2023-04-24T12:35:19;13.70;26.70
578;DHT22;275;48.492;9.214;2023-04-24T12:37:47;13.90;27.00
578;DHT22;275;48.492;9.214;2023-04-24T12:40:17;15.60;24.90
578;DHT22;275;48.492;9.214;2023-04-24T12:42:46;15.40;23.90
578;DHT22;275;48.492;9.214;2023-04-24T12:45:14;15.00;24.90
578;DHT22;275;48.492;9.214;2023-04-24T12:47:42;13.90;25.70
578;DHT22;275;48.492;9.214;2023-04-24T12:50:11;13.20;26.80
578;DHT22;275;48.492;9.214;2023-04-24T12:52:38;13.10;27.50
578;DHT22;275;48.492;9.214;2023-04-24T12:55:06;13.50;27.40
578;DHT22;275;48.492;9.214;2023-04-24T12:57:35;13.80;26.30
578;DHT22;275;48.492;9.214;2023-04-24T13:00:05;13.40;26.30
578;DHT22;275;48.492;9.214;2023-04-24T13:02:33;13.00;27.50
578;DHT22;275;48.492;9.214;2023-04-24T13:05:01;13.20;26.90
578;DHT22;275;48.492;9.214;2023-04-24T13:07:28;13.80;26.50
578;DHT22;275;48.492;9.214;2023-04-24T13:09:55;15.70;24.50
578;DHT22;275;48.492;9.214;2023-04-24T13:12:23;16.00;23.50
578;DHT22;275;48.492;9.214;2023-04-24T13:14:50;16.20;22.90
578;DHT22;275;48.492;9.214;2023-04-24T13:17:19;15.60;24.10
578;DHT22;275;48.492;9.214;2023-04-24T13:19:45;16.20;23.10
578;DHT22;275;48.492;9.214;2023-04-24T13:22:13;16.10;22.70
578;DHT22;275;48.492;9.214;2023-04-24T13:24:40;15.60;24.00
578;DHT22;275;48.492;9.214;2023-04-24T13:27:07;15.30;24.80
578;DHT22;275;48.492;9.214;2023-04-24T13:29:34;15.40;24.70
578;DHT22;275;48.492;9.214;2023-04-24T13:32:01;15.80;23.90
578;DHT22;275;48.492;9.214;2023-04-24T13:34:30;15.50;23.00
578;DHT22;275;48.492;9.214;2023-04-24T13:36:57;14.60;24.40
578;DHT22;275;48.492;9.214;2023-04-24T13:39:25;14.10;25.20
578;DHT22;275;48.492;9.214;2023-04-24T13:41:52;13.90;25.50
578;DHT22;275;48.492;9.214;2023-04-24T13:44:20;14.70;25.10
578;DHT22;275;48.492;9.214;2023-04-24T13:46:49;14.50;24.90
578;DHT22;275;48.492;9.214;2023-04-24T13:49:17;14.20;25.50
578;DHT22;275;48.492;9.214;2023-04-24T13:51:46;14.30;25.30
578;DHT22;275;48.492;9.214;2023-04-24T13:54:13;14.60;24.80
578;DHT22;275;48.492;9.214;2023-04-24T13:56:40;13.70;25.40
578;DHT22;275;48.492;9.214;2023-04-24T13:59:07;14.10;25.40
578;DHT22;275;48.492;9.214;2023-04-24T14:01:34;14.70;24.80
578;DHT22;275;48.492;9.214;2023-04-24T14:04:02;14.60;24.70
578;DHT22;275;48.492;9.214;2023-04-24T14:06:28;15.00;24.50
578;DHT22;275;48.492;9.214;2023-04-24T14:08:58;15.40;24.10
578;DHT22;275;48.492;9.214;2023-04-24T14:11:26;15.20;23.20
578;DHT22;275;48.492;9.214;2023-04-24T14:13:53;14.70;24.20
578;DHT22;275;48.492;9.214;2023-04-24T14:16:21;14.30;24.60
578;DHT22;275;48.492;9.214;2023-04-24T14:18:48;13.80;25.10
578;DHT22;275;48.492;9.214;2023-04-24T14:21:15;13.70;25.70
578;DHT22;275;48.492;9.214;2023-04-24T14:23:42;13.70;26.00
578;DHT22;275;48.492;9.214;2023-04-24T14:26:11;13.60;26.10
578;DHT22;275;48.492;9.214;2023-04-24T14:28:38;14.20;25.80
578;DHT22;275;48.492;9.214;2023-04-24T14:31:05;14.40;25.00
578;DHT22;275;48.492;9.214;2023-04-24T14:33:32;14.70;24.60
578;DHT22;275;48.492;9.214;2023-04-24T14:35:59;14.80;23.80
578;DHT22;275;48.492;9.214;2023-04-24T14:38:28;14.20;24.10
578;DHT22;275;48.492;9.214;2023-04-24T14:40:55;14.20;24.10
578;DHT22;275;48.492;9.214;2023-04-24T14:43:23;14.10;24.50
578;DHT22;275;48.492;9.214;2023-04-24T14:45:50;14.50;24.10
578;DHT22;275;48.492;9.214;2023-04-24T14:48:17;14.90;24.00
578;DHT22;275;48.492;9.214;2023-04-24T14:50:44;14.50;24.20
578;DHT22;275;48.492;9.214;2023-04-24T14:53:11;14.70;25.10
578;DHT22;275;48.492;9.214;2023-04-24T14:55:38;15.20;23.10
578;DHT22;275;48.492;9.214;2023-04-24T14:58:05;15.20;23.10
578;DHT22;275;48.492;9.214;2023-04-24T15:00:33;15.10;23.50
578;DHT22;275;48.492;9.214;2023-04-24T15:03:00;15.40;23.50
578;DHT22;275;48.492;9.214;2023-04-24T15:05:27;15.30;23.50
578;DHT22;275;48.492;9.214;2023-04-24T15:07:54;15.30;23.40
578;DHT22;275;48.492;9.214;2023-04-24T15:10:20;15.40;23.50
578;DHT22;275;48.492;9.214;2023-04-24T15:12:48;15.00;23.90
578;DHT22;275;48.492;9.214;2023-04-24T15:15:15;15.10;23.90
578;DHT22;275;48.492;9.214;2023-04-24T15:17:43;15.10;23.90
578;DHT22;275;48.492;9.214;2023-04-24T15:20:10;15.10;24.10
578;DHT22;275;48.492;9.214;2023-04-24T15:22:37;15.50;23.60
578;DHT22;275;48.492;9.214;2023-04-24T15:25:05;15.70;23.50
578;DHT22;275;48.492;9.214;2023-04-24T15:27:40;15.60;23.40
578;DHT22;275;48.492;9.214;2023-04-24T15:30:08;15.60;23.60
578;DHT22;275;48.492;9.214;2023-04-24T15:32:35;15.60;23.10
578;DHT22;275;48.492;9.214;2023-04-24T15:35:04;14.80;24.60
578;DHT22;275;48.492;9.214;2023-04-24T15:37:31;15.00;24.60
578;DHT22;275;48.492;9.214;2023-04-24T15:39:58;15.60;23.90
578;DHT22;275;48.492;9.214;2023-04-24T15:42:25;15.60;23.70
578;DHT22;275;48.492;9.214;2023-04-24T15:44:52;15.40;23.70
578;DHT22;275;48.492;9.214;2023-04-24T15:47:20;15.20;24.00
578;DHT22;275;48.492;9.214;2023-04-24T15:49:47;15.10;24.10
578;DHT22;275;48.492;9.214;2023-04-24T15:52:15;15.10;23.80
578;DHT22;275;48.492;9.214;2023-04-24T15:54:42;15.10;23.80
578;DHT22;275;48.492;9.214;2023-04-24T15:57:08;15.20;23.50
578;DHT22;275;48.492;9.214;2023-04-24T15:59:35;15.00;23.90
578;DHT22;275;48.492;9.214;2023-04-24T16:02:02;14.70;24.80
578;DHT22;275;48.492;9.214;2023-04-24T16:04:30;14.90;24.90
578;DHT22;275;48.492;9.214;2023-04-24T16:06:59;15.50;24.10
578;DHT22;275;48.492;9.214;2023-04-24T16:09:28;15.70;23.70
578;DHT22;275;48.492;9.214;2023-04-24T16:11:55;15.80;23.70
578;DHT22;275;48.492;9.214;2023-04-24T16:14:23;15.80;23.50
578;DHT22;275;48.492;9.214;2023-04-24T16:16:50;15.50;24.20
578;DHT22;275;48.492;9.214;2023-04-24T16:19:16;15.30;24.30
578;DHT22;275;48.492;9.214;2023-04-24T16:21:43;15.20;24.80
578;DHT22;275;48.492;9.214;2023-04-24T16:24:10;14.70;25.30
578;DHT22;275;48.492;9.214;2023-04-24T16:26:38;15.10;24.60
578;DHT22;275;48.492;9.214;2023-04-24T16:29:05;15.40;24.40
578;DHT22;275;48.492;9.214;2023-04-24T16:31:32;15.60;24.10
578;DHT22;275;48.492;9.214;2023-04-24T16:33:59;15.90;23.80
578;DHT22;275;48.492;9.214;2023-04-24T16:36:26;16.00;23.60
578;DHT22;275;48.492;9.214;2023-04-24T16:38:53;16.20;23.30
578;DHT22;275;48.492;9.214;2023-04-24T16:41:20;16.30;23.10